sensor_id;sensor_type;location;lat;lon;timestamp;pressure;altitude;pressure_sealevel;temperature;humidity
44297;BME280;51842;47.450;8.654;2023-02-20T00:01:56;96688.25;;;5.98;88.02
44297;BME280;51842;47.450;8.654;2023-02-20T00:04:24;96681.75;;;6.01;88.01
44297;BME280;51842;47.450;8.654;2023-02-20T00:06:59;96688.47;;;6.03;88.09
44297;BME280;51842;47.450;8.654;2023-02-20T00:09:27;96688.91;;;5.94;88.38
44297;BME280;51842;47.450;8.654;2023-02-20T00:11:59;96687.47;;;5.98;88.51
44297;BME280;51842;47.450;8.654;2023-02-20T00:14:25;96694.16;;;6.00;88.08
44297;BME280;51842;47.450;8.654;2023-02-20T00:16:51;96690.50;;;6.01;87.80
44297;BME280;51842;47.450;8.654;2023-02-20T00:19:17;96698.22;;;6.03;87.88
44297;BME280;51842;47.450;8.654;2023-02-20T00:21:47;96693.34;;;6.00;88.48
44297;BME280;51842;47.450;8.654;2023-02-20T00:24:18;96695.41;;;5.98;88.82
44297;BME280;51842;47.450;8.654;2023-02-20T00:26:59;96696.84;;;5.94;89.11
44297;BME280;51842;47.450;8.654;2023-02-20T00:29:24;96692.75;;;5.91;88.90
44297;BME280;51842;47.450;8.654;2023-02-20T00:31:57;96692.75;;;5.91;89.34
44297;BME280;51842;47.450;8.654;2023-02-20T00:34:27;96700.50;;;5.93;89.11
44297;BME280;51842;47.450;8.654;2023-02-20T00:36:56;96702.31;;;5.92;89.54
44297;BME280;51842;47.450;8.654;2023-02-20T00:39:28;96703.97;;;5.93;89.27
44297;BME280;51842;47.450;8.654;2023-02-20T00:41:58;96699.47;;;5.94;89.13
44297;BME280;51842;47.450;8.654;2023-02-20T00:44:25;96690.75;;;5.93;89.28
44297;BME280;51842;47.450;8.654;2023-02-20T00:46:56;96696.84;;;5.94;89.29
44297;BME280;51842;47.450;8.654;2023-02-20T00:49:30;96704.13;;;5.92;89.93
44297;BME280;51842;47.450;8.654;2023-02-20T00:51:59;96708.22;;;5.88;90.03
44297;BME280;51842;47.450;8.654;2023-02-20T00:54:33;96709.63;;;5.90;90.01
44297;BME280;51842;47.450;8.654;2023-02-20T00:56:59;96717.19;;;5.87;89.89
44297;BME280;51842;47.450;8.654;2023-02-20T00:59:25;96708.22;;;5.88;89.76
44297;BME280;51842;47.450;8.654;2023-02-20T01:01:57;96711.09;;;5.86;89.92
44297;BME280;51842;47.450;8.654;2023-02-20T01:04:29;96711.66;;;5.88;89.82
44297;BME280;51842;47.450;8.654;2023-02-20T01:06:55;96704.94;;;5.86;90.30
44297;BME280;51842;47.450;8.654;2023-02-20T01:09:21;96704.16;;;5.85;90.15
44297;BME280;51842;47.450;8.654;2023-02-20T01:11:54;96708.25;;;5.74;90.76
44297;BME280;51842;47.450;8.654;2023-02-20T01:14:21;96717.00;;;5.75;90.61
44297;BME280;51842;47.450;8.654;2023-02-20T01:16:56;96713.13;;;5.77;90.32
44297;BME280;51842;47.450;8.654;2023-02-20T01:19:28;96710.88;;;5.81;90.65
44297;BME280;51842;47.450;8.654;2023-02-20T01:22:00;96722.88;;;5.84;90.59
44297;BME280;51842;47.450;8.654;2023-02-20T01:24:27;96709.66;;;5.84;90.59
44297;BME280;51842;47.450;8.654;2023-02-20T01:26:53;96703.75;;;5.82;90.86
44297;BME280;51842;47.450;8.654;2023-02-20T01:29:24;96707.19;;;5.82;90.47
44297;BME280;51842;47.450;8.654;2023-02-20T01:31:59;96695.81;;;5.82;90.15
44297;BME280;51842;47.450;8.654;2023-02-20T01:34:26;96707.00;;;5.84;90.31
44297;BME280;51842;47.450;8.654;2023-02-20T01:36:56;96709.84;;;5.82;90.38
44297;BME280;51842;47.450;8.654;2023-02-20T01:39:28;96701.31;;;5.80;90.16
44297;BME280;51842;47.450;8.654;2023-02-20T01:42:24;96703.34;;;5.78;90.54
44297;BME280;51842;47.450;8.654;2023-02-20T01:44:53;96706.41;;;5.82;90.24
44297;BME280;51842;47.450;8.654;2023-02-20T01:47:23;96705.38;;;5.83;89.80
44297;BME280;51842;47.450;8.654;2023-02-20T01:49:59;96697.25;;;5.84;89.69
44297;BME280;51842;47.450;8.654;2023-02-20T01:52:33;96704.16;;;5.85;89.65
44297;BME280;51842;47.450;8.654;2023-02-20T01:55:26;96705.38;;;5.83;90.03
44297;BME280;51842;47.450;8.654;2023-02-20T01:58:14;96712.72;;;5.80;90.26
44297;BME280;51842;47.450;8.654;2023-02-20T02:00:42;96718.00;;;5.80;90.26
44297;BME280;51842;47.450;8.654;2023-02-20T02:03:20;96713.53;;;5.81;90.20
44297;BME280;51842;47.450;8.654;2023-02-20T02:06:15;96720.41;;;5.82;90.22
44297;BME280;51842;47.450;8.654;2023-02-20T02:08:45;96709.44;;;5.78;90.61
44297;BME280;51842;47.450;8.654;2023-02-20T02:11:24;96706.81;;;5.78;90.69
44297;BME280;51842;47.450;8.654;2023-02-20T02:13:52;96700.09;;;5.76;90.89
44297;BME280;51842;47.450;8.654;2023-02-20T02:16:39;96699.50;;;5.74;90.80
44297;BME280;51842;47.450;8.654;2023-02-20T02:30:41;96690.16;;;5.71;90.86
44297;BME280;51842;47.450;8.654;2023-02-20T02:40:21;96694.44;;;5.66;91.57
44297;BME280;51842;47.450;8.654;2023-02-20T02:42:51;96684.06;;;5.64;91.52
44297;BME280;51842;47.450;8.654;2023-02-20T02:45:41;96693.22;;;5.62;91.85
44297;BME280;51842;47.450;8.654;2023-02-20T02:48:36;96679.19;;;5.54;92.30
44297;BME280;51842;47.450;8.654;2023-02-20T02:51:20;96678.59;;;5.52;92.44
44297;BME280;51842;47.450;8.654;2023-02-20T02:54:17;96676.94;;;5.51;92.73
44297;BME280;51842;47.450;8.654;2023-02-20T02:56:47;96681.44;;;5.51;92.44
44297;BME280;51842;47.450;8.654;2023-02-20T02:59:33;96679.00;;;5.49;92.53
44297;BME280;51842;47.450;8.654;2023-02-20T03:02:06;96680.44;;;5.45;92.78
44297;BME280;51842;47.450;8.654;2023-02-20T03:04:40;96687.53;;;5.45;92.69
44297;BME280;51842;47.450;8.654;2023-02-20T03:07:14;96692.00;;;5.44;92.69
44297;BME280;51842;47.450;8.654;2023-02-20T03:10:08;96684.31;;;5.43;92.74
44297;BME280;51842;47.450;8.654;2023-02-20T03:12:42;96679.03;;;5.43;92.89
44297;BME280;51842;47.450;8.654;2023-02-20T03:15:26;96674.13;;;5.40;92.70
44297;BME280;51842;47.450;8.654;2023-02-20T03:18:39;96674.56;;;5.37;92.64
44297;BME280;51842;47.450;8.654;2023-02-20T03:21:17;96675.97;;;5.32;92.79
44297;BME280;51842;47.450;8.654;2023-02-20T03:24:04;96674.75;;;5.15;93.69
44297;BME280;51842;47.450;8.654;2023-02-20T03:26:42;96666.22;;;5.13;94.12
44297;BME280;51842;47.450;8.654;2023-02-20T03:29:33;96656.06;;;5.17;93.22
44297;BME280;51842;47.450;8.654;2023-02-20T03:32:11;96657.88;;;5.16;92.91
44297;BME280;51842;47.450;8.654;2023-02-20T03:34:59;96655.66;;;5.06;92.44
44297;BME280;51842;47.450;8.654;2023-02-20T03:37:51;96652.41;;;4.84;93.06
44297;BME280;51842;47.450;8.654;2023-02-20T03:40:40;96652.56;;;4.70;93.19
44297;BME280;51842;47.450;8.654;2023-02-20T03:43:29;96651.94;;;4.54;93.82
44297;BME280;51842;47.450;8.654;2023-02-20T03:46:12;96647.63;;;4.27;95.55
44297;BME280;51842;47.450;8.654;2023-02-20T03:48:54;96645.19;;;4.25;95.31
44297;BME280;51842;47.450;8.654;2023-02-20T03:51:24;96641.72;;;4.18;94.62
44297;BME280;51842;47.450;8.654;2023-02-20T03:53:52;96641.59;;;3.91;94.80
44297;BME280;51842;47.450;8.654;2023-02-20T03:56:39;96643.81;;;3.81;95.07
44297;BME280;51842;47.450;8.654;2023-02-20T03:59:14;96642.16;;;3.74;95.17
44297;BME280;51842;47.450;8.654;2023-02-20T04:01:48;96641.88;;;3.62;95.06
44297;BME280;51842;47.450;8.654;2023-02-20T04:04:36;96651.94;;;3.45;94.77
44297;BME280;51842;47.450;8.654;2023-02-20T04:07:18;96641.50;;;3.30;94.86
44297;BME280;51842;47.450;8.654;2023-02-20T04:10:01;96643.16;;;3.10;95.89
44297;BME280;51842;47.450;8.654;2023-02-20T04:12:37;96636.63;;;2.99;96.25
44297;BME280;51842;47.450;8.654;2023-02-20T04:15:10;96633.13;;;2.92;96.54
44297;BME280;51842;47.450;8.654;2023-02-20T04:18:23;96630.31;;;2.72;96.43
44297;BME280;51842;47.450;8.654;2023-02-20T04:21:05;96630.84;;;2.61;96.91
44297;BME280;51842;47.450;8.654;2023-02-20T04:23:42;96632.94;;;2.50;97.52
44297;BME280;51842;47.450;8.654;2023-02-20T04:26:35;96631.38;;;2.35;98.32
44297;BME280;51842;47.450;8.654;2023-02-20T04:29:03;96619.44;;;2.32;98.78
44297;BME280;51842;47.450;8.654;2023-02-20T04:31:33;96622.63;;;2.27;100.00
44297;BME280;51842;47.450;8.654;2023-02-20T04:33:59;96634.50;;;2.23;100.00
44297;BME280;51842;47.450;8.654;2023-02-20T04:36:25;96634.25;;;2.18;100.00
44297;BME280;51842;47.450;8.654;2023-02-20T04:38:54;96634.19;;;2.12;99.91
44297;BME280;51842;47.450;8.654;2023-02-20T04:41:26;96625.84;;;2.08;100.00
44297;BME280;51842;47.450;8.654;2023-02-20T04:43:52;96622.78;;;2.04;100.00
44297;BME280;51842;47.450;8.654;2023-02-20T04:47:13;96623.69;;;1.97;100.00
44297;BME280;51842;47.450;8.654;2023-02-20T04:49:39;96617.75;;;1.88;100.00
44297;BME280;51842;47.450;8.654;2023-02-20T04:52:08;96621.94;;;1.82;100.00
44297;BME280;51842;47.450;8.654;2023-02-20T04:54:34;96625.09;;;1.78;100.00
44297;BME280;51842;47.450;8.654;2023-02-20T04:57:00;96624.00;;;1.72;100.00
44297;BME280;51842;47.450;8.654;2023-02-20T04:59:26;96631.44;;;1.69;100.00
44297;BME280;51842;47.450;8.654;2023-02-20T05:01:58;96626.91;;;1.62;100.00
44297;BME280;51842;47.450;8.654;2023-02-20T05:04:27;96624.66;;;1.59;100.00
44297;BME280;51842;47.450;8.654;2023-02-20T05:06:55;96626.66;;;1.57;100.00
44297;BME280;51842;47.450;8.654;2023-02-20T05:09:24;96620.31;;;1.52;100.00
44297;BME280;51842;47.450;8.654;2023-02-20T05:11:51;96621.50;;;1.49;100.00
44297;BME280;51842;47.450;8.654;2023-02-20T05:14:29;96620.06;;;1.47;100.00
44297;BME280;51842;47.450;8.654;2023-02-20T05:16:55;96615.53;;;1.41;100.00
44297;BME280;51842;47.450;8.654;2023-02-20T05:19:24;96624.75;;;1.36;100.00
44297;BME280;51842;47.450;8.654;2023-02-20T05:21:52;96629.56;;;1.33;100.00
44297;BME280;51842;47.450;8.654;2023-02-20T05:24:44;96629.47;;;1.26;100.00
44297;BME280;51842;47.450;8.654;2023-02-20T05:27:17;96619.50;;;1.22;100.00
44297;BME280;51842;47.450;8.654;2023-02-20T05:29:57;96622.69;;;1.17;100.00
44297;BME280;51842;47.450;8.654;2023-02-20T05:32:27;96621.13;;;1.08;100.00
44297;BME280;51842;47.450;8.654;2023-02-20T05:34:57;96624.56;;;1.08;100.00
44297;BME280;51842;47.450;8.654;2023-02-20T05:37:26;96615.88;;;1.08;100.00
44297;BME280;51842;47.450;8.654;2023-02-20T05:40:00;96618.22;;;1.03;100.00
44297;BME280;51842;47.450;8.654;2023-02-20T05:42:26;96622.00;;;1.00;100.00
44297;BME280;51842;47.450;8.654;2023-02-20T05:44:55;96621.19;;;1.00;100.00
44297;BME280;51842;47.450;8.654;2023-02-20T05:47:21;96620.38;;;0.99;100.00
44297;BME280;51842;47.450;8.654;2023-02-20T05:49:46;96613.06;;;0.95;100.00
44297;BME280;51842;47.450;8.654;2023-02-20T05:52:12;96615.25;;;0.91;100.00
44297;BME280;51842;47.450;8.654;2023-02-20T05:54:40;96612.84;;;0.81;100.00
44297;BME280;51842;47.450;8.654;2023-02-20T05:57:07;96612.22;;;0.79;100.00
44297;BME280;51842;47.450;8.654;2023-02-20T05:59:33;96619.44;;;0.77;100.00
44297;BME280;51842;47.450;8.654;2023-02-20T06:02:00;96614.41;;;0.76;100.00
44297;BME280;51842;47.450;8.654;2023-02-20T06:04:29;96610.13;;;0.75;100.00
44297;BME280;51842;47.450;8.654;2023-02-20T06:06:58;96611.13;;;0.74;100.00
44297;BME280;51842;47.450;8.654;2023-02-20T06:09:24;96620.97;;;0.72;100.00
44297;BME280;51842;47.450;8.654;2023-02-20T06:11:55;96606.59;;;0.67;100.00
44297;BME280;51842;47.450;8.654;2023-02-20T06:14:25;96613.66;;;0.67;100.00
44297;BME280;51842;47.450;8.654;2023-02-20T06:16:57;96610.81;;;0.68;100.00
44297;BME280;51842;47.450;8.654;2023-02-20T06:19:24;96614.00;;;0.64;100.00
44297;BME280;51842;47.450;8.654;2023-02-20T06:21:53;96611.53;;;0.62;100.00
44297;BME280;51842;47.450;8.654;2023-02-20T06:24:20;96618.94;;;0.59;100.00
44297;BME280;51842;47.450;8.654;2023-02-20T06:26:46;96614.16;;;0.62;100.00
44297;BME280;51842;47.450;8.654;2023-02-20T06:29:15;96609.56;;;0.64;100.00
44297;BME280;51842;47.450;8.654;2023-02-20T06:31:41;96603.16;;;0.67;100.00
44297;BME280;51842;47.450;8.654;2023-02-20T06:34:11;96609.22;;;0.67;100.00
44297;BME280;51842;47.450;8.654;2023-02-20T06:36:41;96607.75;;;0.65;100.00
44297;BME280;51842;47.450;8.654;2023-02-20T06:39:11;96606.78;;;0.66;100.00
44297;BME280;51842;47.450;8.654;2023-02-20T06:41:41;96612.19;;;0.64;100.00
44297;BME280;51842;47.450;8.654;2023-02-20T06:44:07;96608.41;;;0.67;100.00
44297;BME280;51842;47.450;8.654;2023-02-20T06:46:36;96607.84;;;0.72;100.00
44297;BME280;51842;47.450;8.654;2023-02-20T06:49:11;96610.13;;;0.75;100.00
44297;BME280;51842;47.450;8.654;2023-02-20T06:51:37;96609.16;;;0.76;100.00
44297;BME280;51842;47.450;8.654;2023-02-20T06:54:06;96605.53;;;0.77;100.00
44297;BME280;51842;47.450;8.654;2023-02-20T06:56:38;96599.47;;;0.76;100.00
44297;BME280;51842;47.450;8.654;2023-02-20T06:59:12;96613.13;;;0.86;100.00
44297;BME280;51842;47.450;8.654;2023-02-20T07:01:42;96602.22;;;0.98;100.00
44297;BME280;51842;47.450;8.654;2023-02-20T07:04:22;96596.88;;;1.06;100.00
44297;BME280;51842;47.450;8.654;2023-02-20T07:06:51;96609.91;;;1.14;100.00
44297;BME280;51842;47.450;8.654;2023-02-20T07:09:18;96607.03;;;1.24;100.00
44297;BME280;51842;47.450;8.654;2023-02-20T07:11:48;96610.53;;;1.31;100.00
44297;BME280;51842;47.450;8.654;2023-02-20T07:14:15;96617.97;;;1.42;100.00
44297;BME280;51842;47.450;8.654;2023-02-20T07:16:41;96623.75;;;1.52;100.00
44297;BME280;51842;47.450;8.654;2023-02-20T07:19:07;96628.94;;;1.60;100.00
44297;BME280;51842;47.450;8.654;2023-02-20T07:21:33;96620.69;;;1.64;100.00
44297;BME280;51842;47.450;8.654;2023-02-20T07:23:58;96611.72;;;1.73;100.00
44297;BME280;51842;47.450;8.654;2023-02-20T07:26:28;96609.22;;;1.86;100.00
44297;BME280;51842;47.450;8.654;2023-02-20T07:28:56;96617.84;;;1.95;100.00
44297;BME280;51842;47.450;8.654;2023-02-20T07:31:39;96621.69;;;2.14;100.00
44297;BME280;51842;47.450;8.654;2023-02-20T07:34:14;96613.09;;;2.26;100.00
44297;BME280;51842;47.450;8.654;2023-02-20T07:36:41;96615.22;;;2.38;100.00
44297;BME280;51842;47.450;8.654;2023-02-20T07:39:12;96609.09;;;2.52;100.00
44297;BME280;51842;47.450;8.654;2023-02-20T07:41:39;96603.78;;;2.67;100.00
44297;BME280;51842;47.450;8.654;2023-02-20T07:44:15;96601.25;;;2.80;100.00
44297;BME280;51842;47.450;8.654;2023-02-20T07:46:41;96600.41;;;3.01;100.00
44297;BME280;51842;47.450;8.654;2023-02-20T07:49:07;96601.22;;;3.36;100.00
44297;BME280;51842;47.450;8.654;2023-02-20T07:51:38;96604.88;;;3.77;100.00
44297;BME280;51842;47.450;8.654;2023-02-20T07:54:13;96607.84;;;4.22;100.00
44297;BME280;51842;47.450;8.654;2023-02-20T07:56:41;96607.69;;;4.56;100.00
44297;BME280;51842;47.450;8.654;2023-02-20T07:59:07;96610.56;;;4.95;100.00
44297;BME280;51842;47.450;8.654;2023-02-20T08:01:35;96605.03;;;5.23;100.00
44297;BME280;51842;47.450;8.654;2023-02-20T08:04:00;96610.31;;;5.43;100.00
44297;BME280;51842;47.450;8.654;2023-02-20T08:06:26;96609.25;;;5.57;98.31
44297;BME280;51842;47.450;8.654;2023-02-20T08:08:53;96600.25;;;5.71;96.44
44297;BME280;51842;47.450;8.654;2023-02-20T08:11:23;96602.25;;;5.83;94.72
44297;BME280;51842;47.450;8.654;2023-02-20T08:13:50;96596.94;;;5.96;93.40
44297;BME280;51842;47.450;8.654;2023-02-20T08:16:28;96599.09;;;6.12;93.13
44297;BME280;51842;47.450;8.654;2023-02-20T08:18:54;96596.16;;;6.34;92.22
44297;BME280;51842;47.450;8.654;2023-02-20T08:21:21;96596.38;;;6.57;87.80
44297;BME280;51842;47.450;8.654;2023-02-20T08:23:59;96591.97;;;7.01;86.08
44297;BME280;51842;47.450;8.654;2023-02-20T08:26:28;96586.91;;;7.43;83.08
44297;BME280;51842;47.450;8.654;2023-02-20T08:29:00;96595.59;;;7.87;82.14
44297;BME280;51842;47.450;8.654;2023-02-20T08:31:26;96595.31;;;8.25;78.19
44297;BME280;51842;47.450;8.654;2023-02-20T08:33:53;96592.47;;;8.69;75.27
44297;BME280;51842;47.450;8.654;2023-02-20T08:36:24;96584.22;;;9.00;73.31
44297;BME280;51842;47.450;8.654;2023-02-20T08:38:53;96587.34;;;9.33;70.67
44297;BME280;51842;47.450;8.654;2023-02-20T08:41:19;96592.66;;;9.56;69.26
44297;BME280;51842;47.450;8.654;2023-02-20T08:43:45;96588.56;;;9.77;68.21
44297;BME280;51842;47.450;8.654;2023-02-20T08:46:12;96592.56;;;10.03;67.62
44297;BME280;51842;47.450;8.654;2023-02-20T08:48:38;96590.53;;;10.22;66.34
44297;BME280;51842;47.450;8.654;2023-02-20T08:51:06;96584.47;;;10.38;64.99
44297;BME280;51842;47.450;8.654;2023-02-20T08:53:40;96582.34;;;10.69;63.65
44297;BME280;51842;47.450;8.654;2023-02-20T08:56:07;96576.88;;;11.09;62.92
44297;BME280;51842;47.450;8.654;2023-02-20T08:58:40;96573.50;;;11.36;60.18
44297;BME280;51842;47.450;8.654;2023-02-20T09:01:06;96568.53;;;11.62;60.19
44297;BME280;51842;47.450;8.654;2023-02-20T09:03:34;96576.00;;;11.81;59.01
44297;BME280;51842;47.450;8.654;2023-02-20T09:06:09;96583.16;;;11.98;57.54
44297;BME280;51842;47.450;8.654;2023-02-20T09:08:41;96577.00;;;12.19;55.93
44297;BME280;51842;47.450;8.654;2023-02-20T09:11:06;96574.34;;;12.46;56.20
44297;BME280;51842;47.450;8.654;2023-02-20T09:13:51;96574.63;;;12.77;55.68
44297;BME280;51842;47.450;8.654;2023-02-20T09:16:24;96578.09;;;13.10;54.86
44297;BME280;51842;47.450;8.654;2023-02-20T09:18:50;96582.06;;;13.34;53.88
44297;BME280;51842;47.450;8.654;2023-02-20T09:21:18;96570.97;;;13.63;53.05
44297;BME280;51842;47.450;8.654;2023-02-20T09:23:45;96572.94;;;13.78;52.05
44297;BME280;51842;47.450;8.654;2023-02-20T09:26:11;96568.75;;;13.97;51.65
44297;BME280;51842;47.450;8.654;2023-02-20T09:28:40;96577.63;;;14.13;50.91
44297;BME280;51842;47.450;8.654;2023-02-20T09:31:09;96571.00;;;14.31;49.88
44297;BME280;51842;47.450;8.654;2023-02-20T09:33:37;96569.97;;;14.42;50.25
44297;BME280;51842;47.450;8.654;2023-02-20T09:36:03;96567.28;;;14.42;49.99
44297;BME280;51842;47.450;8.654;2023-02-20T09:38:29;96560.19;;;14.00;51.41
44297;BME280;51842;47.450;8.654;2023-02-20T09:40:59;96558.06;;;14.12;51.22
44297;BME280;51842;47.450;8.654;2023-02-20T09:43:52;96554.66;;;14.32;50.95
44297;BME280;51842;47.450;8.654;2023-02-20T09:46:23;96559.25;;;14.42;49.99
44297;BME280;51842;47.450;8.654;2023-02-20T09:49:29;96557.34;;;14.38;49.70
44297;BME280;51842;47.450;8.654;2023-02-20T09:52:11;96553.34;;;14.40;49.47
44297;BME280;51842;47.450;8.654;2023-02-20T09:55:00;96555.53;;;14.58;48.82
44297;BME280;51842;47.450;8.654;2023-02-20T09:57:32;96560.13;;;14.99;48.40
44297;BME280;51842;47.450;8.654;2023-02-20T10:00:34;96560.13;;;15.14;46.46
44297;BME280;51842;47.450;8.654;2023-02-20T10:03:35;96551.53;;;15.33;45.82
44297;BME280;51842;47.450;8.654;2023-02-20T10:06:17;96553.34;;;15.47;45.59
44297;BME280;51842;47.450;8.654;2023-02-20T10:08:51;96549.09;;;15.26;45.94
44297;BME280;51842;47.450;8.654;2023-02-20T10:15:17;96553.16;;;14.67;47.16
44297;BME280;51842;47.450;8.654;2023-02-20T10:23:57;96554.19;;;15.43;45.96
44297;BME280;51842;47.450;8.654;2023-02-20T10:26:38;96558.22;;;15.35;45.75
44297;BME280;51842;47.450;8.654;2023-02-20T10:29:28;96552.03;;;15.40;46.18
44297;BME280;51842;47.450;8.654;2023-02-20T10:32:17;96559.28;;;15.55;45.83
44297;BME280;51842;47.450;8.654;2023-02-20T10:35:09;96567.50;;;15.94;45.28
44297;BME280;51842;47.450;8.654;2023-02-20T10:37:47;96560.41;;;16.18;44.59
44297;BME280;51842;47.450;8.654;2023-02-20T10:40:53;96563.50;;;16.41;45.04
44297;BME280;51842;47.450;8.654;2023-02-20T10:43:58;96553.19;;;16.14;45.16
44297;BME280;51842;47.450;8.654;2023-02-20T10:50:19;96547.78;;;16.19;44.63
44297;BME280;51842;47.450;8.654;2023-02-20T10:53:03;96542.25;;;16.45;44.71
44297;BME280;51842;47.450;8.654;2023-02-20T10:59:22;96543.22;;;16.64;43.85
44297;BME280;51842;47.450;8.654;2023-02-20T11:02:05;96539.44;;;16.65;43.23
44297;BME280;51842;47.450;8.654;2023-02-20T11:04:56;96537.25;;;16.67;43.61
44297;BME280;51842;47.450;8.654;2023-02-20T11:07:26;96534.22;;;16.84;42.34
44297;BME280;51842;47.450;8.654;2023-02-20T11:09:58;96533.75;;;17.35;42.13
44297;BME280;51842;47.450;8.654;2023-02-20T11:13:04;96521.19;;;17.78;41.42
44297;BME280;51842;47.450;8.654;2023-02-20T11:15:37;96518.75;;;18.01;41.47
44297;BME280;51842;47.450;8.654;2023-02-20T11:18:38;96518.59;;;18.35;40.76
44297;BME280;51842;47.450;8.654;2023-02-20T11:21:42;96515.81;;;18.40;40.56
44297;BME280;51842;47.450;8.654;2023-02-20T11:24:36;96512.09;;;18.55;40.63
44297;BME280;51842;47.450;8.654;2023-02-20T11:27:24;96513.34;;;18.44;40.24
44297;BME280;51842;47.450;8.654;2023-02-20T11:30:30;96503.13;;;17.79;40.95
44297;BME280;51842;47.450;8.654;2023-02-20T11:33:24;96496.16;;;18.21;40.47
44297;BME280;51842;47.450;8.654;2023-02-20T11:36:17;96490.22;;;18.38;40.43
44297;BME280;51842;47.450;8.654;2023-02-20T11:38:47;96480.81;;;18.73;39.79
44297;BME280;51842;47.450;8.654;2023-02-20T11:44:37;96463.97;;;18.95;39.75
44297;BME280;51842;47.450;8.654;2023-02-20T11:47:29;96461.66;;;19.21;39.07
44297;BME280;51842;47.450;8.654;2023-02-20T11:50:19;96454.44;;;19.44;38.19
44297;BME280;51842;47.450;8.654;2023-02-20T11:53:05;96453.88;;;19.75;37.93
44297;BME280;51842;47.450;8.654;2023-02-20T11:55:34;96440.28;;;20.02;38.04
44297;BME280;51842;47.450;8.654;2023-02-20T11:58:04;96438.63;;;20.29;37.07
44297;BME280;51842;47.450;8.654;2023-02-20T12:00:48;96432.00;;;19.99;36.77
44297;BME280;51842;47.450;8.654;2023-02-20T12:03:24;96432.72;;;20.27;37.51
44297;BME280;51842;47.450;8.654;2023-02-20T12:05:51;96422.13;;;20.17;36.79
44297;BME280;51842;47.450;8.654;2023-02-20T12:08:55;96412.56;;;20.33;37.44
44297;BME280;51842;47.450;8.654;2023-02-20T12:11:26;96416.69;;;19.94;35.56
44297;BME280;51842;47.450;8.654;2023-02-20T12:13:57;96412.69;;;20.28;35.06
44297;BME280;51842;47.450;8.654;2023-02-20T12:20:17;96404.25;;;20.07;35.17
44297;BME280;51842;47.450;8.654;2023-02-20T12:39:29;96365.19;;;19.99;36.03
44297;BME280;51842;47.450;8.654;2023-02-20T12:46:20;96360.53;;;20.36;36.18
44297;BME280;51842;47.450;8.654;2023-02-20T12:49:41;96351.63;;;20.89;34.37
44297;BME280;51842;47.450;8.654;2023-02-20T13:02:47;96338.63;;;21.00;33.89
44297;BME280;51842;47.450;8.654;2023-02-20T13:05:23;96333.81;;;20.88;33.90
44297;BME280;51842;47.450;8.654;2023-02-20T13:08:31;96317.16;;;21.12;33.09
44297;BME280;51842;47.450;8.654;2023-02-20T13:11:33;96313.00;;;21.15;32.49
44297;BME280;51842;47.450;8.654;2023-02-20T13:20:21;96292.25;;;21.59;32.43
44297;BME280;51842;47.450;8.654;2023-02-20T13:25:55;96299.09;;;21.65;31.83
44297;BME280;51842;47.450;8.654;2023-02-20T13:28:40;96290.19;;;21.64;31.30
44297;BME280;51842;47.450;8.654;2023-02-20T13:32:20;96294.34;;;21.79;30.94
44297;BME280;51842;47.450;8.654;2023-02-20T13:34:53;96291.31;;;21.72;31.73
44297;BME280;51842;47.450;8.654;2023-02-20T13:54:21;96255.06;;;22.11;31.70
44297;BME280;51842;47.450;8.654;2023-02-20T13:56:57;96246.63;;;21.95;31.12
44297;BME280;51842;47.450;8.654;2023-02-20T13:59:33;96244.91;;;21.47;31.01
44297;BME280;51842;47.450;8.654;2023-02-20T14:02:16;96241.38;;;21.56;31.10
44297;BME280;51842;47.450;8.654;2023-02-20T14:05:01;96243.44;;;21.59;31.12
44297;BME280;51842;47.450;8.654;2023-02-20T14:10:12;96236.06;;;22.03;29.70
44297;BME280;51842;47.450;8.654;2023-02-20T14:12:45;96231.78;;;22.02;30.22
44297;BME280;51842;47.450;8.654;2023-02-20T14:15:18;96238.31;;;22.09;30.69
44297;BME280;51842;47.450;8.654;2023-02-20T14:17:50;96241.16;;;22.22;31.06
44297;BME280;51842;47.450;8.654;2023-02-20T14:20:35;96237.03;;;22.07;30.78
44297;BME280;51842;47.450;8.654;2023-02-20T14:23:14;96239.97;;;21.84;31.45
44297;BME280;51842;47.450;8.654;2023-02-20T14:25:58;96229.69;;;22.07;31.26
44297;BME280;51842;47.450;8.654;2023-02-20T14:28:26;96237.50;;;22.17;30.75
44297;BME280;51842;47.450;8.654;2023-02-20T14:31:32;96233.75;;;21.75;31.21
44297;BME280;51842;47.450;8.654;2023-02-20T14:43:02;96223.22;;;21.47;32.37
44297;BME280;51842;47.450;8.654;2023-02-20T14:45:29;96222.09;;;21.66;32.40
44297;BME280;51842;47.450;8.654;2023-02-20T14:48:00;96217.59;;;21.96;32.73
44297;BME280;51842;47.450;8.654;2023-02-20T14:50:35;96213.00;;;21.88;32.50
44297;BME280;51842;47.450;8.654;2023-02-20T14:53:15;96214.91;;;21.53;32.11
44297;BME280;51842;47.450;8.654;2023-02-20T14:55:43;96211.34;;;21.09;32.01
44297;BME280;51842;47.450;8.654;2023-02-20T14:58:22;96213.81;;;20.70;32.69
44297;BME280;51842;47.450;8.654;2023-02-20T15:00:51;96212.06;;;20.74;32.64
44297;BME280;51842;47.450;8.654;2023-02-20T15:03:28;96221.28;;;20.65;32.84
44297;BME280;51842;47.450;8.654;2023-02-20T15:06:02;96209.00;;;20.59;31.07
44297;BME280;51842;47.450;8.654;2023-02-20T15:08:34;96207.13;;;20.37;30.75
44297;BME280;51842;47.450;8.654;2023-02-20T15:11:15;96207.25;;;20.23;30.54
44297;BME280;51842;47.450;8.654;2023-02-20T15:13:44;96197.75;;;20.34;30.79
44297;BME280;51842;47.450;8.654;2023-02-20T15:16:20;96197.16;;;20.15;30.83
44297;BME280;51842;47.450;8.654;2023-02-20T15:18:53;96197.09;;;20.28;30.28
44297;BME280;51842;47.450;8.654;2023-02-20T15:21:41;96195.38;;;20.41;30.11
44297;BME280;51842;47.450;8.654;2023-02-20T15:27:22;96188.53;;;20.92;30.41
44297;BME280;51842;47.450;8.654;2023-02-20T15:30:16;96190.47;;;20.92;28.94
44297;BME280;51842;47.450;8.654;2023-02-20T15:32:51;96183.31;;;20.87;29.29
44297;BME280;51842;47.450;8.654;2023-02-20T15:35:32;96181.16;;;20.67;29.14
44297;BME280;51842;47.450;8.654;2023-02-20T15:38:08;96178.16;;;20.77;29.70
44297;BME280;51842;47.450;8.654;2023-02-20T15:40:40;96177.84;;;20.70;30.52
44297;BME280;51842;47.450;8.654;2023-02-20T15:43:13;96170.66;;;20.56;30.86
44297;BME280;51842;47.450;8.654;2023-02-20T15:45:52;96168.66;;;20.48;31.11